sensor_id;sensor_type;location;lat;lon;timestamp;P1;durP1;ratioP1;P2;durP2;ratioP2
36445;SDS011;22472;50.848;-1.216;2023-07-16T00:01:07;26.65;;;3.70;;
36445;SDS011;22472;50.848;-1.216;2023-07-16T00:03:36;20.80;;;3.83;;
36445;SDS011;22472;50.848;-1.216;2023-07-16T00:06:03;24.80;;;4.10;;
36445;SDS011;22472;50.848;-1.216;2023-07-16T00:08:30;19.13;;;3.40;;
36445;SDS011;22472;50.848;-1.216;2023-07-16T00:10:58;20.65;;;3.67;;
36445;SDS011;22472;50.848;-1.216;2023-07-16T00:13:25;27.15;;;3.80;;
36445;SDS011;22472;50.848;-1.216;2023-07-16T00:15:52;23.70;;;4.03;;
36445;SDS011;22472;50.848;-1.216;2023-07-16T00:18:20;17.95;;;3.38;;
36445;SDS011;22472;50.848;-1.216;2023-07-16T00:20:48;20.55;;;3.85;;
36445;SDS011;22472;50.848;-1.216;2023-07-16T00:23:16;23.67;;;3.95;;
36445;SDS011;22472;50.848;-1.216;2023-07-16T00:25:43;26.00;;;3.47;;
36445;SDS011;22472;50.848;-1.216;2023-07-16T00:28:10;19.95;;;4.03;;
36445;SDS011;22472;50.848;-1.216;2023-07-16T00:30:38;17.10;;;3.45;;
36445;SDS011;22472;50.848;-1.216;2023-07-16T00:33:05;21.05;;;4.22;;
36445;SDS011;22472;50.848;-1.216;2023-07-16T00:35:33;19.55;;;3.53;;
36445;SDS011;22472;50.848;-1.216;2023-07-16T00:38:01;20.23;;;3.22;;
36445;SDS011;22472;50.848;-1.216;2023-07-16T00:40:28;26.02;;;3.40;;
36445;SDS011;22472;50.848;-1.216;2023-07-16T00:42:56;22.23;;;3.67;;
36445;SDS011;22472;50.848;-1.216;2023-07-16T00:45:23;18.88;;;3.22;;
36445;SDS011;22472;50.848;-1.216;2023-07-16T00:47:50;18.20;;;3.85;;
36445;SDS011;22472;50.848;-1.216;2023-07-16T00:50:19;21.55;;;3.72;;
36445;SDS011;22472;50.848;-1.216;2023-07-16T00:52:46;19.85;;;3.35;;
36445;SDS011;22472;50.848;-1.216;2023-07-16T00:55:15;21.33;;;3.67;;
36445;SDS011;22472;50.848;-1.216;2023-07-16T00:57:42;15.38;;;3.33;;
36445;SDS011;22472;50.848;-1.216;2023-07-16T01:00:10;18.42;;;3.88;;
36445;SDS011;22472;50.848;-1.216;2023-07-16T01:02:38;22.77;;;3.65;;
36445;SDS011;22472;50.848;-1.216;2023-07-16T01:05:06;22.75;;;3.83;;
36445;SDS011;22472;50.848;-1.216;2023-07-16T01:07:33;24.40;;;3.97;;
36445;SDS011;22472;50.848;-1.216;2023-07-16T01:10:01;21.20;;;3.90;;
36445;SDS011;22472;50.848;-1.216;2023-07-16T01:12:30;22.05;;;3.63;;
36445;SDS011;22472;50.848;-1.216;2023-07-16T01:14:59;22.70;;;3.93;;
36445;SDS011;22472;50.848;-1.216;2023-07-16T01:17:26;19.40;;;3.65;;
36445;SDS011;22472;50.848;-1.216;2023-07-16T01:19:53;24.20;;;3.92;;
36445;SDS011;22472;50.848;-1.216;2023-07-16T01:22:28;19.08;;;3.75;;
36445;SDS011;22472;50.848;-1.216;2023-07-16T01:25:16;23.90;;;4.38;;
36445;SDS011;22472;50.848;-1.216;2023-07-16T01:27:59;25.15;;;3.83;;
36445;SDS011;22472;50.848;-1.216;2023-07-16T01:30:31;21.10;;;3.72;;
36445;SDS011;22472;50.848;-1.216;2023-07-16T01:32:59;18.73;;;3.80;;
36445;SDS011;22472;50.848;-1.216;2023-07-16T01:35:28;20.17;;;3.85;;
36445;SDS011;22472;50.848;-1.216;2023-07-16T01:37:55;21.45;;;4.28;;
36445;SDS011;22472;50.848;-1.216;2023-07-16T01:40:22;25.83;;;3.78;;
36445;SDS011;22472;50.848;-1.216;2023-07-16T01:42:50;23.30;;;4.00;;
36445;SDS011;22472;50.848;-1.216;2023-07-16T01:45:17;22.83;;;4.13;;
36445;SDS011;22472;50.848;-1.216;2023-07-16T01:47:49;26.05;;;4.47;;
36445;SDS011;22472;50.848;-1.216;2023-07-16T01:50:17;20.25;;;4.05;;
36445;SDS011;22472;50.848;-1.216;2023-07-16T01:52:45;25.00;;;3.92;;
36445;SDS011;22472;50.848;-1.216;2023-07-16T01:55:12;22.67;;;3.92;;
36445;SDS011;22472;50.848;-1.216;2023-07-16T01:57:39;28.90;;;4.32;;
36445;SDS011;22472;50.848;-1.216;2023-07-16T02:00:07;21.05;;;3.88;;
36445;SDS011;22472;50.848;-1.216;2023-07-16T02:05:12;20.50;;;4.00;;
36445;SDS011;22472;50.848;-1.216;2023-07-16T02:07:40;24.58;;;4.32;;
36445;SDS011;22472;50.848;-1.216;2023-07-16T02:10:07;23.02;;;3.60;;
36445;SDS011;22472;50.848;-1.216;2023-07-16T02:12:35;26.88;;;4.07;;
36445;SDS011;22472;50.848;-1.216;2023-07-16T02:15:02;20.25;;;3.28;;
36445;SDS011;22472;50.848;-1.216;2023-07-16T02:17:29;30.17;;;4.25;;
36445;SDS011;22472;50.848;-1.216;2023-07-16T02:19:57;20.33;;;3.63;;
36445;SDS011;22472;50.848;-1.216;2023-07-16T02:22:25;18.90;;;3.65;;
36445;SDS011;22472;50.848;-1.216;2023-07-16T02:24:53;25.23;;;3.60;;
36445;SDS011;22472;50.848;-1.216;2023-07-16T02:27:20;23.70;;;3.53;;
36445;SDS011;22472;50.848;-1.216;2023-07-16T02:29:47;21.80;;;3.60;;
36445;SDS011;22472;50.848;-1.216;2023-07-16T02:32:14;21.73;;;3.55;;
36445;SDS011;22472;50.848;-1.216;2023-07-16T02:34:42;30.42;;;3.88;;
36445;SDS011;22472;50.848;-1.216;2023-07-16T02:37:09;19.83;;;3.58;;
36445;SDS011;22472;50.848;-1.216;2023-07-16T02:39:38;17.58;;;3.20;;
36445;SDS011;22472;50.848;-1.216;2023-07-16T02:42:05;22.88;;;3.13;;
36445;SDS011;22472;50.848;-1.216;2023-07-16T02:44:33;19.38;;;3.33;;
36445;SDS011;22472;50.848;-1.216;2023-07-16T02:47:03;19.33;;;3.47;;
36445;SDS011;22472;50.848;-1.216;2023-07-16T02:49:31;18.42;;;3.30;;
36445;SDS011;22472;50.848;-1.216;2023-07-16T02:51:58;18.65;;;3.17;;
36445;SDS011;22472;50.848;-1.216;2023-07-16T02:54:25;23.00;;;3.17;;
36445;SDS011;22472;50.848;-1.216;2023-07-16T02:56:54;23.02;;;3.35;;
36445;SDS011;22472;50.848;-1.216;2023-07-16T02:59:21;20.15;;;3.00;;
36445;SDS011;22472;50.848;-1.216;2023-07-16T03:01:49;22.33;;;3.15;;
36445;SDS011;22472;50.848;-1.216;2023-07-16T03:04:17;14.13;;;2.78;;
36445;SDS011;22472;50.848;-1.216;2023-07-16T03:06:44;18.67;;;2.75;;
36445;SDS011;22472;50.848;-1.216;2023-07-16T03:09:11;19.42;;;3.33;;
36445;SDS011;22472;50.848;-1.216;2023-07-16T03:11:39;18.23;;;2.88;;
36445;SDS011;22472;50.848;-1.216;2023-07-16T03:14:08;22.70;;;3.08;;
36445;SDS011;22472;50.848;-1.216;2023-07-16T03:16:35;17.60;;;3.13;;
36445;SDS011;22472;50.848;-1.216;2023-07-16T03:19:02;18.02;;;3.35;;
36445;SDS011;22472;50.848;-1.216;2023-07-16T03:21:31;22.17;;;3.17;;
36445;SDS011;22472;50.848;-1.216;2023-07-16T03:23:58;21.65;;;3.47;;
36445;SDS011;22472;50.848;-1.216;2023-07-16T03:26:25;15.63;;;2.88;;
36445;SDS011;22472;50.848;-1.216;2023-07-16T03:28:52;19.90;;;3.10;;
36445;SDS011;22472;50.848;-1.216;2023-07-16T03:31:21;15.35;;;2.95;;
36445;SDS011;22472;50.848;-1.216;2023-07-16T03:33:49;24.45;;;3.30;;
36445;SDS011;22472;50.848;-1.216;2023-07-16T03:36:16;16.77;;;2.92;;
36445;SDS011;22472;50.848;-1.216;2023-07-16T03:38:44;20.35;;;3.20;;
36445;SDS011;22472;50.848;-1.216;2023-07-16T03:41:11;18.00;;;3.40;;
36445;SDS011;22472;50.848;-1.216;2023-07-16T03:43:39;18.13;;;3.50;;
36445;SDS011;22472;50.848;-1.216;2023-07-16T03:46:06;18.75;;;3.17;;
36445;SDS011;22472;50.848;-1.216;2023-07-16T03:48:35;21.63;;;3.20;;
36445;SDS011;22472;50.848;-1.216;2023-07-16T03:51:02;19.23;;;2.92;;
36445;SDS011;22472;50.848;-1.216;2023-07-16T03:53:29;22.92;;;3.92;;
36445;SDS011;22472;50.848;-1.216;2023-07-16T03:55:57;22.65;;;3.20;;
36445;SDS011;22472;50.848;-1.216;2023-07-16T03:58:24;21.92;;;3.10;;
36445;SDS011;22472;50.848;-1.216;2023-07-16T04:00:52;17.95;;;3.00;;
36445;SDS011;22472;50.848;-1.216;2023-07-16T04:03:20;19.98;;;2.72;;
36445;SDS011;22472;50.848;-1.216;2023-07-16T04:05:48;26.92;;;3.90;;
36445;SDS011;22472;50.848;-1.216;2023-07-16T04:08:16;18.63;;;2.97;;
36445;SDS011;22472;50.848;-1.216;2023-07-16T04:10:43;24.95;;;3.72;;
36445;SDS011;22472;50.848;-1.216;2023-07-16T04:13:10;22.10;;;3.22;;
36445;SDS011;22472;50.848;-1.216;2023-07-16T04:15:38;25.00;;;3.35;;
36445;SDS011;22472;50.848;-1.216;2023-07-16T04:18:05;21.20;;;3.03;;
36445;SDS011;22472;50.848;-1.216;2023-07-16T04:20:32;21.52;;;3.58;;
36445;SDS011;22472;50.848;-1.216;2023-07-16T04:23:01;20.92;;;3.45;;
36445;SDS011;22472;50.848;-1.216;2023-07-16T04:25:28;20.73;;;3.60;;
36445;SDS011;22472;50.848;-1.216;2023-07-16T04:27:55;15.55;;;3.03;;
36445;SDS011;22472;50.848;-1.216;2023-07-16T04:30:23;24.58;;;3.80;;
36445;SDS011;22472;50.848;-1.216;2023-07-16T04:32:50;20.75;;;3.42;;
36445;SDS011;22472;50.848;-1.216;2023-07-16T04:35:18;21.42;;;3.40;;
36445;SDS011;22472;50.848;-1.216;2023-07-16T04:37:45;19.95;;;3.75;;
36445;SDS011;22472;50.848;-1.216;2023-07-16T04:40:13;17.95;;;3.42;;
36445;SDS011;22472;50.848;-1.216;2023-07-16T04:42:41;25.52;;;3.78;;
36445;SDS011;22472;50.848;-1.216;2023-07-16T04:45:08;20.85;;;3.45;;
36445;SDS011;22472;50.848;-1.216;2023-07-16T04:47:35;23.35;;;3.28;;
36445;SDS011;22472;50.848;-1.216;2023-07-16T04:50:03;16.38;;;2.97;;
36445;SDS011;22472;50.848;-1.216;2023-07-16T04:52:30;19.13;;;3.28;;
36445;SDS011;22472;50.848;-1.216;2023-07-16T04:54:57;19.40;;;3.08;;
36445;SDS011;22472;50.848;-1.216;2023-07-16T04:57:26;20.83;;;3.20;;
36445;SDS011;22472;50.848;-1.216;2023-07-16T04:59:53;18.35;;;3.00;;
36445;SDS011;22472;50.848;-1.216;2023-07-16T05:02:21;23.60;;;3.20;;
36445;SDS011;22472;50.848;-1.216;2023-07-16T05:04:48;20.25;;;3.28;;
36445;SDS011;22472;50.848;-1.216;2023-07-16T05:07:15;19.50;;;3.45;;
36445;SDS011;22472;50.848;-1.216;2023-07-16T05:09:43;20.85;;;3.17;;
36445;SDS011;22472;50.848;-1.216;2023-07-16T05:12:10;18.23;;;3.28;;
36445;SDS011;22472;50.848;-1.216;2023-07-16T05:14:44;16.73;;;2.88;;
36445;SDS011;22472;50.848;-1.216;2023-07-16T05:17:11;23.17;;;3.15;;
36445;SDS011;22472;50.848;-1.216;2023-07-16T05:19:39;20.80;;;2.67;;
36445;SDS011;22472;50.848;-1.216;2023-07-16T05:22:06;21.52;;;3.05;;
36445;SDS011;22472;50.848;-1.216;2023-07-16T05:24:33;19.85;;;2.72;;
36445;SDS011;22472;50.848;-1.216;2023-07-16T05:27:01;15.73;;;2.63;;
36445;SDS011;22472;50.848;-1.216;2023-07-16T05:29:28;18.00;;;2.85;;
36445;SDS011;22472;50.848;-1.216;2023-07-16T05:31:56;16.80;;;2.72;;
36445;SDS011;22472;50.848;-1.216;2023-07-16T05:34:24;17.13;;;2.78;;
36445;SDS011;22472;50.848;-1.216;2023-07-16T05:36:52;16.73;;;2.65;;
36445;SDS011;22472;50.848;-1.216;2023-07-16T05:39:20;19.85;;;2.60;;
36445;SDS011;22472;50.848;-1.216;2023-07-16T05:41:48;18.42;;;2.60;;
36445;SDS011;22472;50.848;-1.216;2023-07-16T05:44:15;18.42;;;3.03;;
36445;SDS011;22472;50.848;-1.216;2023-07-16T05:46:42;19.58;;;3.20;;
36445;SDS011;22472;50.848;-1.216;2023-07-16T05:49:11;18.27;;;2.80;;
36445;SDS011;22472;50.848;-1.216;2023-07-16T05:51:38;14.10;;;2.22;;
36445;SDS011;22472;50.848;-1.216;2023-07-16T05:54:06;17.83;;;2.35;;
36445;SDS011;22472;50.848;-1.216;2023-07-16T05:56:34;19.00;;;3.00;;
36445;SDS011;22472;50.848;-1.216;2023-07-16T05:59:01;19.17;;;2.50;;
36445;SDS011;22472;50.848;-1.216;2023-07-16T06:01:28;19.70;;;2.78;;
36445;SDS011;22472;50.848;-1.216;2023-07-16T06:03:55;15.35;;;2.45;;
36445;SDS011;22472;50.848;-1.216;2023-07-16T06:06:26;19.00;;;2.10;;
36445;SDS011;22472;50.848;-1.216;2023-07-16T06:08:53;15.50;;;2.60;;
36445;SDS011;22472;50.848;-1.216;2023-07-16T06:11:20;13.70;;;2.28;;
36445;SDS011;22472;50.848;-1.216;2023-07-16T06:13:48;15.27;;;2.08;;
36445;SDS011;22472;50.848;-1.216;2023-07-16T06:16:15;13.27;;;2.42;;
36445;SDS011;22472;50.848;-1.216;2023-07-16T06:18:42;11.63;;;2.60;;
36445;SDS011;22472;50.848;-1.216;2023-07-16T06:21:09;17.30;;;2.58;;
36445;SDS011;22472;50.848;-1.216;2023-07-16T06:23:38;15.13;;;2.17;;
36445;SDS011;22472;50.848;-1.216;2023-07-16T06:26:05;13.23;;;2.00;;
36445;SDS011;22472;50.848;-1.216;2023-07-16T06:28:33;16.70;;;2.30;;
36445;SDS011;22472;50.848;-1.216;2023-07-16T06:31:00;16.92;;;2.53;;
36445;SDS011;22472;50.848;-1.216;2023-07-16T06:33:27;14.90;;;2.13;;
36445;SDS011;22472;50.848;-1.216;2023-07-16T06:35:55;18.00;;;2.88;;
36445;SDS011;22472;50.848;-1.216;2023-07-16T06:38:22;14.73;;;2.67;;
36445;SDS011;22472;50.848;-1.216;2023-07-16T06:40:51;14.13;;;2.75;;
36445;SDS011;22472;50.848;-1.216;2023-07-16T06:43:19;19.05;;;2.60;;
36445;SDS011;22472;50.848;-1.216;2023-07-16T06:45:48;24.60;;;3.22;;
36445;SDS011;22472;50.848;-1.216;2023-07-16T06:48:16;18.07;;;2.60;;
36445;SDS011;22472;50.848;-1.216;2023-07-16T06:50:43;14.18;;;2.33;;
36445;SDS011;22472;50.848;-1.216;2023-07-16T06:53:10;12.48;;;2.40;;
36445;SDS011;22472;50.848;-1.216;2023-07-16T06:55:37;15.90;;;2.67;;
36445;SDS011;22472;50.848;-1.216;2023-07-16T06:58:09;14.82;;;2.63;;
36445;SDS011;22472;50.848;-1.216;2023-07-16T07:00:37;14.00;;;2.65;;
36445;SDS011;22472;50.848;-1.216;2023-07-16T07:03:04;10.00;;;2.10;;
36445;SDS011;22472;50.848;-1.216;2023-07-16T07:05:31;14.07;;;2.33;;
36445;SDS011;22472;50.848;-1.216;2023-07-16T07:08:01;16.50;;;2.70;;
36445;SDS011;22472;50.848;-1.216;2023-07-16T07:10:28;16.70;;;2.50;;
36445;SDS011;22472;50.848;-1.216;2023-07-16T07:12:55;14.60;;;2.30;;
36445;SDS011;22472;50.848;-1.216;2023-07-16T07:15:24;14.38;;;2.28;;
36445;SDS011;22472;50.848;-1.216;2023-07-16T07:17:51;16.77;;;2.25;;
36445;SDS011;22472;50.848;-1.216;2023-07-16T07:20:19;13.55;;;2.17;;
36445;SDS011;22472;50.848;-1.216;2023-07-16T07:22:46;13.02;;;1.70;;
36445;SDS011;22472;50.848;-1.216;2023-07-16T07:25:14;12.18;;;1.90;;
36445;SDS011;22472;50.848;-1.216;2023-07-16T07:27:41;14.70;;;2.60;;
36445;SDS011;22472;50.848;-1.216;2023-07-16T07:30:08;15.75;;;2.70;;
36445;SDS011;22472;50.848;-1.216;2023-07-16T07:32:38;15.48;;;2.50;;
36445;SDS011;22472;50.848;-1.216;2023-07-16T07:35:06;14.45;;;2.40;;
36445;SDS011;22472;50.848;-1.216;2023-07-16T07:37:35;15.20;;;2.20;;
36445;SDS011;22472;50.848;-1.216;2023-07-16T07:40:03;15.38;;;2.17;;
36445;SDS011;22472;50.848;-1.216;2023-07-16T07:42:31;12.63;;;1.98;;
36445;SDS011;22472;50.848;-1.216;2023-07-16T07:44:58;17.08;;;2.10;;
36445;SDS011;22472;50.848;-1.216;2023-07-16T07:47:26;16.75;;;2.53;;
36445;SDS011;22472;50.848;-1.216;2023-07-16T07:49:56;11.30;;;1.80;;
36445;SDS011;22472;50.848;-1.216;2023-07-16T07:52:23;13.32;;;2.17;;
36445;SDS011;22472;50.848;-1.216;2023-07-16T07:54:50;13.02;;;2.03;;
36445;SDS011;22472;50.848;-1.216;2023-07-16T07:57:19;10.80;;;1.67;;
36445;SDS011;22472;50.848;-1.216;2023-07-16T07:59:46;13.77;;;2.22;;
36445;SDS011;22472;50.848;-1.216;2023-07-16T08:02:16;12.65;;;1.83;;
36445;SDS011;22472;50.848;-1.216;2023-07-16T08:04:46;11.00;;;1.60;;
36445;SDS011;22472;50.848;-1.216;2023-07-16T08:07:15;10.68;;;1.85;;
36445;SDS011;22472;50.848;-1.216;2023-07-16T08:09:42;13.82;;;1.70;;
36445;SDS011;22472;50.848;-1.216;2023-07-16T08:12:10;14.73;;;2.22;;
36445;SDS011;22472;50.848;-1.216;2023-07-16T08:14:37;14.60;;;2.10;;
36445;SDS011;22472;50.848;-1.216;2023-07-16T08:17:04;13.50;;;2.40;;
36445;SDS011;22472;50.848;-1.216;2023-07-16T08:19:32;13.93;;;2.45;;
36445;SDS011;22472;50.848;-1.216;2023-07-16T08:21:59;14.77;;;2.45;;
36445;SDS011;22472;50.848;-1.216;2023-07-16T08:24:27;15.52;;;2.30;;
36445;SDS011;22472;50.848;-1.216;2023-07-16T08:26:55;18.02;;;2.42;;
36445;SDS011;22472;50.848;-1.216;2023-07-16T08:29:22;14.80;;;2.42;;
36445;SDS011;22472;50.848;-1.216;2023-07-16T08:31:50;16.33;;;2.10;;
36445;SDS011;22472;50.848;-1.216;2023-07-16T08:34:17;14.00;;;2.55;;
36445;SDS011;22472;50.848;-1.216;2023-07-16T08:36:44;14.82;;;2.40;;
36445;SDS011;22472;50.848;-1.216;2023-07-16T08:39:12;15.68;;;2.33;;
36445;SDS011;22472;50.848;-1.216;2023-07-16T08:41:41;15.90;;;2.38;;
36445;SDS011;22472;50.848;-1.216;2023-07-16T08:44:08;15.77;;;2.60;;
36445;SDS011;22472;50.848;-1.216;2023-07-16T08:46:36;13.50;;;2.13;;
36445;SDS011;22472;50.848;-1.216;2023-07-16T08:49:04;19.88;;;2.67;;
36445;SDS011;22472;50.848;-1.216;2023-07-16T08:51:32;17.05;;;2.60;;
36445;SDS011;22472;50.848;-1.216;2023-07-16T08:53:59;15.73;;;2.28;;
36445;SDS011;22472;50.848;-1.216;2023-07-16T08:56:26;16.80;;;2.33;;
36445;SDS011;22472;50.848;-1.216;2023-07-16T08:58:55;14.43;;;2.00;;
36445;SDS011;22472;50.848;-1.216;2023-07-16T09:01:22;12.77;;;2.08;;
36445;SDS011;22472;50.848;-1.216;2023-07-16T09:03:50;12.63;;;2.08;;
36445;SDS011;22472;50.848;-1.216;2023-07-16T09:06:17;14.45;;;2.03;;
36445;SDS011;22472;50.848;-1.216;2023-07-16T09:08:46;17.50;;;2.30;;
36445;SDS011;22472;50.848;-1.216;2023-07-16T09:11:13;12.98;;;2.10;;
36445;SDS011;22472;50.848;-1.216;2023-07-16T09:13:43;13.05;;;1.90;;
36445;SDS011;22472;50.848;-1.216;2023-07-16T09:16:12;9.57;;;2.15;;
36445;SDS011;22472;50.848;-1.216;2023-07-16T09:18:41;10.73;;;2.03;;
36445;SDS011;22472;50.848;-1.216;2023-07-16T09:21:09;16.85;;;2.70;;
36445;SDS011;22472;50.848;-1.216;2023-07-16T09:23:37;14.82;;;2.40;;
36445;SDS011;22472;50.848;-1.216;2023-07-16T09:26:06;14.98;;;2.80;;
36445;SDS011;22472;50.848;-1.216;2023-07-16T09:28:34;14.88;;;2.40;;
36445;SDS011;22472;50.848;-1.216;2023-07-16T09:31:04;12.00;;;2.30;;
36445;SDS011;22472;50.848;-1.216;2023-07-16T09:33:33;13.32;;;1.95;;
36445;SDS011;22472;50.848;-1.216;2023-07-16T09:36:00;15.35;;;2.72;;
36445;SDS011;22472;50.848;-1.216;2023-07-16T09:38:28;15.85;;;3.10;;
36445;SDS011;22472;50.848;-1.216;2023-07-16T09:40:56;13.70;;;2.20;;
36445;SDS011;22472;50.848;-1.216;2023-07-16T09:43:23;18.48;;;2.88;;
36445;SDS011;22472;50.848;-1.216;2023-07-16T09:45:50;14.70;;;2.95;;
36445;SDS011;22472;50.848;-1.216;2023-07-16T09:48:18;17.25;;;2.88;;
36445;SDS011;22472;50.848;-1.216;2023-07-16T09:50:49;11.95;;;2.35;;
36445;SDS011;22472;50.848;-1.216;2023-07-16T09:53:18;15.80;;;2.72;;
36445;SDS011;22472;50.848;-1.216;2023-07-16T09:55:46;15.80;;;2.33;;
36445;SDS011;22472;50.848;-1.216;2023-07-16T09:58:14;14.20;;;2.30;;
36445;SDS011;22472;50.848;-1.216;2023-07-16T10:00:41;18.80;;;3.17;;
36445;SDS011;22472;50.848;-1.216;2023-07-16T10:03:09;10.90;;;2.40;;
36445;SDS011;22472;50.848;-1.216;2023-07-16T10:05:37;13.60;;;2.53;;
36445;SDS011;22472;50.848;-1.216;2023-07-16T10:08:14;15.15;;;2.80;;
36445;SDS011;22472;50.848;-1.216;2023-07-16T10:10:42;13.88;;;2.22;;
36445;SDS011;22472;50.848;-1.216;2023-07-16T10:13:11;11.30;;;2.28;;
36445;SDS011;22472;50.848;-1.216;2023-07-16T10:15:39;13.75;;;2.35;;
36445;SDS011;22472;50.848;-1.216;2023-07-16T10:18:07;15.80;;;2.85;;
36445;SDS011;22472;50.848;-1.216;2023-07-16T10:20:35;12.57;;;2.13;;
36445;SDS011;22472;50.848;-1.216;2023-07-16T10:23:12;14.68;;;2.03;;
36445;SDS011;22472;50.848;-1.216;2023-07-16T10:25:40;8.05;;;1.85;;
36445;SDS011;22472;50.848;-1.216;2023-07-16T10:28:07;10.73;;;1.80;;
36445;SDS011;22472;50.848;-1.216;2023-07-16T10:30:34;10.55;;;1.90;;
36445;SDS011;22472;50.848;-1.216;2023-07-16T10:33:02;8.90;;;1.75;;
36445;SDS011;22472;50.848;-1.216;2023-07-16T10:35:34;9.25;;;1.33;;
36445;SDS011;22472;50.848;-1.216;2023-07-16T10:38:02;11.73;;;2.15;;
36445;SDS011;22472;50.848;-1.216;2023-07-16T10:40:31;10.13;;;2.05;;
36445;SDS011;22472;50.848;-1.216;2023-07-16T10:42:58;14.13;;;2.15;;
36445;SDS011;22472;50.848;-1.216;2023-07-16T10:45:26;10.23;;;1.75;;
36445;SDS011;22472;50.848;-1.216;2023-07-16T10:47:55;9.98;;;2.03;;
36445;SDS011;22472;50.848;-1.216;2023-07-16T10:50:22;10.18;;;1.92;;
36445;SDS011;22472;50.848;-1.216;2023-07-16T10:52:50;10.38;;;2.08;;
36445;SDS011;22472;50.848;-1.216;2023-07-16T10:55:18;13.30;;;1.90;;
36445;SDS011;22472;50.848;-1.216;2023-07-16T10:57:48;10.43;;;2.00;;
36445;SDS011;22472;50.848;-1.216;2023-07-16T11:00:16;8.55;;;2.20;;
36445;SDS011;22472;50.848;-1.216;2023-07-16T11:02:43;8.55;;;1.67;;
36445;SDS011;22472;50.848;-1.216;2023-07-16T11:05:11;8.70;;;1.45;;
36445;SDS011;22472;50.848;-1.216;2023-07-16T11:07:42;10.60;;;2.00;;
36445;SDS011;22472;50.848;-1.216;2023-07-16T11:10:10;9.95;;;2.00;;
36445;SDS011;22472;50.848;-1.216;2023-07-16T11:12:37;10.40;;;1.67;;
36445;SDS011;22472;50.848;-1.216;2023-07-16T11:15:07;10.85;;;2.00;;
36445;SDS011;22472;50.848;-1.216;2023-07-16T11:17:36;11.55;;;1.48;;
36445;SDS011;22472;50.848;-1.216;2023-07-16T11:20:04;8.55;;;1.80;;
36445;SDS011;22472;50.848;-1.216;2023-07-16T11:22:36;12.68;;;2.28;;
36445;SDS011;22472;50.848;-1.216;2023-07-16T11:25:10;11.80;;;2.05;;
36445;SDS011;22472;50.848;-1.216;2023-07-16T11:27:39;12.60;;;2.28;;
36445;SDS011;22472;50.848;-1.216;2023-07-16T11:30:09;12.48;;;2.28;;
36445;SDS011;22472;50.848;-1.216;2023-07-16T11:32:36;12.93;;;2.10;;
36445;SDS011;22472;50.848;-1.216;2023-07-16T11:35:05;9.07;;;2.15;;
36445;SDS011;22472;50.848;-1.216;2023-07-16T11:37:33;9.88;;;1.75;;
36445;SDS011;22472;50.848;-1.216;2023-07-16T11:40:03;9.55;;;2.13;;
36445;SDS011;22472;50.848;-1.216;2023-07-16T11:42:31;11.87;;;2.50;;
36445;SDS011;22472;50.848;-1.216;2023-07-16T11:44:58;9.55;;;2.05;;
36445;SDS011;22472;50.848;-1.216;2023-07-16T11:47:27;12.00;;;1.95;;
36445;SDS011;22472;50.848;-1.216;2023-07-16T11:49:55;10.75;;;2.17;;
36445;SDS011;22472;50.848;-1.216;2023-07-16T11:52:23;9.93;;;2.00;;
36445;SDS011;22472;50.848;-1.216;2023-07-16T11:54:51;15.73;;;2.50;;
36445;SDS011;22472;50.848;-1.216;2023-07-16T11:57:18;11.43;;;2.17;;
36445;SDS011;22472;50.848;-1.216;2023-07-16T11:59:45;12.23;;;2.28;;
36445;SDS011;22472;50.848;-1.216;2023-07-16T12:02:13;11.48;;;1.88;;
36445;SDS011;22472;50.848;-1.216;2023-07-16T12:04:42;13.00;;;2.08;;
36445;SDS011;22472;50.848;-1.216;2023-07-16T12:07:09;12.98;;;2.17;;
36445;SDS011;22472;50.848;-1.216;2023-07-16T12:09:36;9.18;;;1.80;;
36445;SDS011;22472;50.848;-1.216;2023-07-16T12:12:04;9.45;;;1.60;;
36445;SDS011;22472;50.848;-1.216;2023-07-16T12:14:31;11.15;;;1.75;;
36445;SDS011;22472;50.848;-1.216;2023-07-16T12:16:59;7.95;;;1.58;;
36445;SDS011;22472;50.848;-1.216;2023-07-16T12:19:26;9.48;;;1.65;;
36445;SDS011;22472;50.848;-1.216;2023-07-16T12:21:55;9.93;;;2.05;;
36445;SDS011;22472;50.848;-1.216;2023-07-16T12:24:22;11.48;;;1.65;;
36445;SDS011;22472;50.848;-1.216;2023-07-16T12:26:49;8.00;;;1.60;;
36445;SDS011;22472;50.848;-1.216;2023-07-16T12:29:17;12.25;;;1.73;;
36445;SDS011;22472;50.848;-1.216;2023-07-16T12:31:44;12.38;;;1.95;;
36445;SDS011;22472;50.848;-1.216;2023-07-16T12:34:11;10.68;;;1.92;;
36445;SDS011;22472;50.848;-1.216;2023-07-16T12:36:38;16.92;;;2.67;;
36445;SDS011;22472;50.848;-1.216;2023-07-16T12:39:07;9.85;;;1.42;;
36445;SDS011;22472;50.848;-1.216;2023-07-16T12:41:34;11.68;;;1.75;;
36445;SDS011;22472;50.848;-1.216;2023-07-16T12:44:02;10.98;;;1.90;;
36445;SDS011;22472;50.848;-1.216;2023-07-16T12:46:29;11.40;;;2.03;;
36445;SDS011;22472;50.848;-1.216;2023-07-16T12:48:56;10.85;;;2.10;;
36445;SDS011;22472;50.848;-1.216;2023-07-16T12:51:23;11.85;;;2.25;;
36445;SDS011;22472;50.848;-1.216;2023-07-16T12:53:51;10.05;;;1.90;;
36445;SDS011;22472;50.848;-1.216;2023-07-16T12:56:19;8.73;;;2.00;;
36445;SDS011;22472;50.848;-1.216;2023-07-16T12:58:47;9.73;;;1.83;;
36445;SDS011;22472;50.848;-1.216;2023-07-16T13:01:14;7.85;;;1.50;;
36445;SDS011;22472;50.848;-1.216;2023-07-16T13:03:41;13.20;;;1.83;;
36445;SDS011;22472;50.848;-1.216;2023-07-16T13:06:09;9.27;;;1.48;;
36445;SDS011;22472;50.848;-1.216;2023-07-16T13:08:36;8.73;;;1.60;;
36445;SDS011;22472;50.848;-1.216;2023-07-16T13:11:03;15.48;;;2.13;;
36445;SDS011;22472;50.848;-1.216;2023-07-16T13:13:32;9.50;;;1.55;;
36445;SDS011;22472;50.848;-1.216;2023-07-16T13:16:00;9.55;;;2.00;;
36445;SDS011;22472;50.848;-1.216;2023-07-16T13:18:27;9.05;;;1.88;;
36445;SDS011;22472;50.848;-1.216;2023-07-16T13:20:55;8.88;;;1.40;;
36445;SDS011;22472;50.848;-1.216;2023-07-16T13:23:22;11.10;;;1.50;;
36445;SDS011;22472;50.848;-1.216;2023-07-16T13:25:49;9.85;;;1.80;;
36445;SDS011;22472;50.848;-1.216;2023-07-16T13:28:17;8.43;;;1.60;;
36445;SDS011;22472;50.848;-1.216;2023-07-16T13:30:46;7.82;;;1.30;;
36445;SDS011;22472;50.848;-1.216;2023-07-16T13:33:14;8.80;;;1.38;;
36445;SDS011;22472;50.848;-1.216;2023-07-16T13:35:41;5.85;;;0.98;;
36445;SDS011;22472;50.848;-1.216;2023-07-16T13:38:08;8.45;;;1.45;;
36445;SDS011;22472;50.848;-1.216;2023-07-16T13:40:36;7.00;;;1.50;;
36445;SDS011;22472;50.848;-1.216;2023-07-16T13:43:03;7.47;;;1.42;;
36445;SDS011;22472;50.848;-1.216;2023-07-16T13:45:31;7.75;;;1.35;;
36445;SDS011;22472;50.848;-1.216;2023-07-16T13:48:00;8.63;;;1.50;;
36445;SDS011;22472;50.848;-1.216;2023-07-16T13:50:27;8.88;;;1.60;;
36445;SDS011;22472;50.848;-1.216;2023-07-16T13:52:54;10.02;;;1.55;;
36445;SDS011;22472;50.848;-1.216;2023-07-16T13:55:21;10.93;;;2.10;;
36445;SDS011;22472;50.848;-1.216;2023-07-16T13:57:48;10.80;;;1.98;;
36445;SDS011;22472;50.848;-1.216;2023-07-16T14:00:15;10.90;;;1.95;;
36445;SDS011;22472;50.848;-1.216;2023-07-16T14:02:43;10.10;;;1.90;;
36445;SDS011;22472;50.848;-1.216;2023-07-16T14:05:12;8.85;;;1.80;;
36445;SDS011;22472;50.848;-1.216;2023-07-16T14:07:39;11.20;;;1.80;;
36445;SDS011;22472;50.848;-1.216;2023-07-16T14:10:07;11.07;;;2.30;;
36445;SDS011;22472;50.848;-1.216;2023-07-16T14:12:35;8.43;;;1.50;;
36445;SDS011;22472;50.848;-1.216;2023-07-16T14:15:02;11.10;;;1.85;;
36445;SDS011;22472;50.848;-1.216;2023-07-16T14:17:30;7.93;;;1.70;;
36445;SDS011;22472;50.848;-1.216;2023-07-16T14:19:57;9.77;;;1.60;;
36445;SDS011;22472;50.848;-1.216;2023-07-16T14:22:26;9.02;;;1.70;;
36445;SDS011;22472;50.848;-1.216;2023-07-16T14:24:53;7.45;;;1.60;;
36445;SDS011;22472;50.848;-1.216;2023-07-16T14:27:21;10.52;;;2.00;;
36445;SDS011;22472;50.848;-1.216;2023-07-16T14:29:48;9.85;;;1.67;;